createdAt,value
2017-11-04T00:01:55.576Z,72.87
2017-11-04T00:04:23.193Z,76.75
2017-11-04T00:06:50.756Z,85.67
2017-11-04T00:09:18.320Z,72.18
2017-11-04T00:11:45.904Z,77.43
2017-11-04T00:14:13.888Z,74.00
2017-11-04T00:16:41.448Z,70.90
2017-11-04T00:19:09.829Z,58.07
2017-11-04T00:21:37.416Z,68.77
2017-11-04T00:24:05.747Z,66.20
2017-11-04T00:26:33.336Z,78.10
2017-11-04T00:29:00.903Z,86.20
2017-11-04T00:31:29.260Z,72.40
2017-11-04T00:33:56.923Z,72.10
2017-11-04T00:36:24.512Z,82.57
2017-11-04T00:38:52.839Z,67.53
2017-11-04T00:41:20.638Z,63.15
2017-11-04T00:43:49.301Z,74.40
2017-11-04T00:46:17.660Z,70.80
2017-11-04T00:48:45.260Z,75.80
2017-11-04T00:51:15.140Z,66.97
2017-11-04T00:53:42.724Z,72.67
2017-11-04T00:56:10.317Z,66.63
2017-11-04T00:58:38.680Z,68.20
2017-11-04T01:01:06.244Z,62.40
2017-11-04T01:03:33.896Z,64.85
2017-11-04T01:06:01.462Z,79.67
2017-11-04T01:08:29.060Z,69.90
2017-11-04T01:10:56.624Z,73.00
2017-11-04T01:13:24.212Z,69.30
2017-11-04T01:15:51.796Z,80.37
2017-11-04T01:18:19.384Z,69.47
2017-11-04T01:20:47.708Z,62.77
2017-11-04T01:23:17.024Z,62.15
2017-11-04T01:25:44.608Z,68.60
2017-11-04T01:28:12.168Z,75.23
2017-11-04T01:30:40.528Z,71.13
2017-11-04T01:33:08.088Z,70.20
2017-11-04T01:35:35.681Z,71.62
2017-11-04T01:38:04.009Z,76.87
2017-11-04T01:40:31.601Z,68.18
2017-11-04T01:42:59.170Z,75.00
2017-11-04T01:45:26.764Z,69.68
2017-11-04T01:47:54.329Z,68.43
2017-11-04T01:50:21.916Z,66.22
2017-11-04T01:52:49.480Z,78.53
2017-11-04T01:55:17.068Z,61.87
2017-11-04T01:57:44.679Z,71.20
2017-11-04T02:00:12.268Z,74.30
2017-11-04T02:02:39.836Z,87.97
2017-11-04T02:05:07.512Z,81.17
2017-11-04T02:07:35.075Z,72.33
2017-11-04T02:10:02.667Z,78.17
2017-11-04T02:12:31.030Z,79.13
2017-11-04T02:14:59.506Z,79.40
2017-11-04T02:17:27.940Z,70.23
2017-11-04T02:19:56.115Z,80.57
2017-11-04T02:22:24.134Z,77.03
2017-11-04T02:24:52.471Z,71.30
2017-11-04T02:27:20.077Z,62.00
2017-11-04T02:29:48.414Z,64.60
2017-11-04T02:32:17.323Z,67.43
2017-11-04T02:34:44.893Z,79.30
2017-11-04T02:37:13.405Z,62.50
2017-11-04T02:39:41.741Z,67.30
2017-11-04T02:42:09.323Z,68.77
2017-11-04T02:44:37.648Z,62.20
2017-11-04T02:47:05.252Z,63.73
2017-11-04T02:49:32.817Z,68.30
2017-11-04T02:52:00.475Z,68.67
2017-11-04T02:54:28.036Z,69.50
2017-11-04T02:56:55.607Z,70.27
2017-11-04T02:59:23.954Z,65.57
2017-11-04T03:01:51.514Z,76.33
2017-11-04T03:04:19.099Z,73.00
2017-11-04T03:06:46.660Z,68.67
2017-11-04T03:09:15.376Z,74.20
2017-11-04T03:11:43.175Z,78.23
2017-11-04T03:14:10.872Z,66.60
2017-11-04T03:16:38.435Z,65.03
2017-11-04T03:19:06.028Z,61.43
2017-11-04T03:21:34.358Z,73.00
2017-11-04T03:24:02.041Z,73.72
2017-11-04T03:26:29.700Z,67.57
2017-11-04T03:28:57.320Z,67.07
2017-11-04T03:31:24.891Z,64.10
2017-11-04T03:33:52.448Z,67.43
2017-11-04T03:36:20.056Z,52.87
2017-11-04T03:38:48.391Z,62.53
2017-11-04T03:41:17.399Z,60.00
2017-11-04T03:43:44.961Z,64.27
2017-11-04T03:46:12.552Z,67.03
2017-11-04T03:48:40.120Z,66.72
2017-11-04T03:51:08.580Z,66.53
2017-11-04T03:53:36.145Z,59.30
2017-11-04T03:56:03.804Z,56.30
2017-11-04T03:58:31.368Z,61.20
2017-11-04T04:00:58.955Z,59.23
2017-11-04T04:03:27.280Z,54.72
2017-11-04T04:05:54.847Z,65.07
2017-11-04T04:08:22.437Z,52.37
2017-11-04T04:10:50.776Z,63.10
2017-11-04T04:13:18.472Z,55.47
2017-11-04T04:15:46.042Z,52.57
2017-11-04T04:18:15.327Z,60.03
2017-11-04T04:20:42.889Z,56.73
2017-11-04T04:23:10.477Z,59.63
2017-11-04T04:25:38.832Z,56.03
2017-11-04T04:28:06.426Z,54.50
2017-11-04T04:30:33.996Z,58.05
2017-11-04T04:33:01.580Z,62.28
2017-11-04T04:35:29.140Z,62.33
2017-11-04T04:37:56.724Z,55.63
2017-11-04T04:40:24.292Z,60.80
2017-11-04T04:42:52.144Z,53.08
2017-11-04T04:45:19.711Z,59.53
2017-11-04T04:47:47.305Z,66.63
2017-11-04T04:50:16.961Z,65.47
2017-11-04T04:52:44.556Z,61.67
2017-11-04T04:55:14.582Z,62.17
2017-11-04T04:57:42.941Z,57.40
2017-11-04T05:00:10.508Z,56.87
2017-11-04T05:02:39.603Z,60.50
2017-11-04T05:05:07.165Z,81.23
2017-11-04T05:07:34.780Z,68.20
2017-11-04T05:10:02.402Z,72.17
2017-11-04T05:12:33.713Z,67.97
2017-11-04T05:15:01.276Z,98.37
2017-11-04T05:17:28.863Z,81.03
2017-11-04T05:19:56.461Z,76.95
2017-11-04T05:22:24.033Z,73.68
2017-11-04T05:24:51.624Z,76.40
2017-11-04T05:27:19.184Z,78.53
2017-11-04T05:29:46.768Z,69.33
2017-11-04T05:32:16.448Z,130.90
2017-11-04T05:34:44.040Z,118.53
2017-11-04T05:37:11.603Z,88.63
2017-11-04T05:39:39.200Z,117.23
2017-11-04T05:42:06.765Z,92.83
2017-11-04T05:44:34.688Z,145.83
2017-11-04T05:47:02.261Z,119.23
2017-11-04T05:49:29.828Z,99.53
2017-11-04T05:51:58.948Z,82.10
2017-11-04T05:54:26.508Z,98.57
2017-11-04T05:56:54.128Z,97.27
2017-11-04T05:59:21.699Z,102.60
2017-11-04T06:01:50.056Z,124.20
2017-11-04T06:04:17.619Z,122.83
2017-11-04T06:06:45.229Z,116.50
2017-11-04T06:09:13.728Z,97.80
2017-11-04T06:11:41.292Z,85.30
2017-11-04T06:14:08.878Z,84.47
2017-11-04T06:16:36.451Z,92.23
2017-11-04T06:19:04.040Z,77.67
2017-11-04T06:21:32.379Z,85.93
2017-11-04T06:24:00.124Z,74.53
2017-11-04T06:26:27.696Z,80.70
2017-11-04T06:28:55.264Z,73.33
2017-11-04T06:31:22.856Z,71.82
2017-11-04T06:33:51.193Z,72.60
2017-11-04T06:36:19.069Z,71.77
2017-11-04T06:38:46.633Z,75.70
2017-11-04T06:41:15.580Z,68.12
2017-11-04T06:43:43.199Z,66.53
2017-11-04T06:46:10.789Z,67.47
2017-11-04T06:48:39.365Z,61.05
2017-11-04T06:51:07.722Z,67.90
2017-11-04T06:53:35.389Z,68.40
2017-11-04T06:56:02.983Z,66.67
2017-11-04T06:58:31.311Z,62.20
2017-11-04T07:00:58.896Z,63.37
2017-11-04T07:03:27.240Z,68.30
2017-11-04T07:05:54.980Z,70.00
2017-11-04T07:08:22.553Z,70.43
2017-11-04T07:10:50.124Z,63.70
2017-11-04T07:13:17.708Z,58.83
2017-11-04T07:15:45.276Z,64.57
2017-11-04T07:18:15.533Z,57.93
2017-11-04T07:20:43.096Z,53.63
2017-11-04T07:23:10.685Z,53.90
2017-11-04T07:25:38.253Z,63.60
2017-11-04T07:28:05.852Z,57.38
2017-11-04T07:30:33.413Z,57.93
2017-11-04T07:33:01.958Z,56.83
2017-11-04T07:35:29.533Z,57.27
2017-11-04T07:37:57.096Z,56.30
2017-11-04T07:40:24.680Z,61.15
2017-11-04T07:42:53.016Z,47.17
2017-11-04T07:45:20.608Z,49.40
2017-11-04T07:47:48.181Z,48.25
2017-11-04T07:50:18.396Z,51.65
2017-11-04T07:52:46.052Z,50.73
2017-11-04T07:55:15.334Z,44.07
2017-11-04T07:57:43.123Z,42.77
2017-11-04T08:00:10.689Z,43.28
2017-11-04T08:02:38.349Z,39.20
2017-11-04T08:05:05.952Z,49.17
2017-11-04T08:07:33.542Z,41.83
2017-11-04T08:10:01.232Z,45.20
2017-11-04T08:12:28.893Z,44.33
2017-11-04T08:14:56.556Z,42.00
2017-11-04T08:17:24.904Z,41.70
2017-11-04T08:19:52.496Z,41.87
2017-11-04T08:22:20.157Z,42.03
2017-11-04T08:24:47.752Z,46.90
2017-11-04T08:27:17.743Z,41.42
2017-11-04T08:29:45.336Z,44.42
2017-11-04T08:32:12.905Z,40.97
2017-11-04T08:34:40.501Z,44.17
2017-11-04T08:37:08.068Z,48.40
2017-11-04T08:39:36.176Z,46.20
2017-11-04T08:42:04.512Z,46.50
2017-11-04T08:44:32.112Z,45.20
2017-11-04T08:47:00.457Z,41.10
2017-11-04T08:49:28.052Z,51.63
2017-11-04T08:51:56.393Z,58.30
2017-11-04T08:54:23.989Z,50.37
2017-11-04T08:56:52.332Z,52.77
2017-11-04T08:59:20.117Z,53.55
2017-11-04T09:01:47.689Z,55.20
2017-11-04T09:04:17.159Z,55.67
2017-11-04T09:06:44.756Z,59.50
2017-11-04T09:09:14.252Z,79.00
2017-11-04T09:11:41.822Z,77.90
2017-11-04T09:14:10.148Z,68.47
2017-11-04T09:16:37.740Z,84.33
2017-11-04T09:19:05.308Z,67.30
2017-11-04T09:21:32.900Z,73.00
2017-11-04T09:24:01.237Z,55.00
2017-11-04T09:26:29.060Z,53.50
2017-11-04T09:28:56.628Z,53.55
2017-11-04T09:31:24.228Z,43.50
2017-11-04T09:33:51.799Z,48.80
2017-11-04T09:36:19.388Z,44.67
2017-11-04T09:38:47.745Z,53.13
2017-11-04T09:41:17.313Z,48.63
2017-11-04T09:43:44.885Z,49.60
2017-11-04T09:46:12.468Z,52.87
2017-11-04T09:48:40.066Z,59.43
2017-11-04T09:51:07.632Z,48.60
2017-11-04T09:53:35.200Z,63.17
2017-11-04T09:56:02.788Z,53.97
2017-11-04T09:58:30.365Z,50.97
2017-11-04T10:00:57.968Z,54.75
2017-11-04T10:03:25.536Z,55.03
2017-11-04T10:05:53.256Z,49.80
2017-11-04T10:08:21.104Z,52.67
2017-11-04T10:10:48.696Z,46.70
2017-11-04T10:13:16.721Z,49.83
2017-11-04T10:15:44.316Z,53.70
2017-11-04T10:18:11.905Z,52.17
2017-11-04T10:20:39.481Z,52.93
2017-11-04T10:23:07.836Z,55.73
2017-11-04T10:25:36.300Z,51.70
2017-11-04T10:28:03.878Z,51.80
2017-11-04T10:30:32.231Z,50.33
2017-11-04T10:32:59.801Z,53.93
2017-11-04T10:35:28.180Z,53.67
2017-11-04T10:37:55.744Z,57.93
2017-11-04T10:40:23.449Z,47.73
2017-11-04T10:42:51.021Z,44.23
2017-11-04T10:45:18.589Z,40.63
2017-11-04T10:47:46.188Z,35.57
2017-11-04T10:50:15.697Z,38.67
2017-11-04T10:52:43.292Z,38.30
2017-11-04T10:55:10.861Z,40.10
2017-11-04T10:57:38.447Z,34.70
2017-11-04T11:00:06.320Z,33.37
2017-11-04T11:02:33.912Z,40.70
2017-11-04T11:05:02.245Z,43.30
2017-11-04T11:07:29.841Z,39.05
2017-11-04T11:09:57.403Z,44.17
2017-11-04T11:12:25.022Z,33.80
2017-11-04T11:14:52.622Z,42.33
2017-11-04T11:17:20.963Z,38.92
2017-11-04T11:19:48.555Z,48.73
2017-11-04T11:22:17.441Z,49.42
2017-11-04T11:24:45.037Z,40.10
2017-11-04T11:27:14.296Z,36.87
2017-11-04T11:29:41.985Z,41.37
2017-11-04T11:32:09.557Z,44.80
2017-11-04T11:34:37.920Z,43.90
2017-11-04T11:37:07.001Z,46.37
2017-11-04T11:39:34.589Z,46.10
2017-11-04T11:42:02.925Z,37.00
2017-11-04T11:44:30.524Z,40.05
2017-11-04T11:46:58.093Z,40.37
2017-11-04T11:49:26.560Z,36.35
2017-11-04T11:51:54.133Z,37.10
2017-11-04T11:54:23.273Z,30.30
2017-11-04T11:56:50.869Z,31.27
2017-11-04T11:59:18.460Z,31.40
2017-11-04T12:01:46.801Z,31.60
2017-11-04T12:04:16.529Z,30.10
2017-11-04T12:06:44.096Z,32.27
2017-11-04T12:09:11.683Z,32.73
2017-11-04T12:11:39.253Z,30.07
2017-11-04T12:14:06.876Z,32.30
2017-11-04T12:16:34.452Z,28.60
2017-11-04T12:19:04.676Z,29.07
2017-11-04T12:21:32.538Z,29.90
2017-11-04T12:24:00.999Z,41.47
2017-11-04T12:26:28.669Z,38.03
2017-11-04T12:28:56.261Z,35.17
2017-11-04T12:31:23.824Z,39.40
2017-11-04T12:33:51.416Z,38.97
2017-11-04T12:36:18.989Z,36.40
2017-11-04T12:38:46.579Z,31.50
2017-11-04T12:41:16.485Z,30.12
2017-11-04T12:43:44.080Z,31.87
2017-11-04T12:46:12.417Z,35.20
2017-11-04T12:48:40.013Z,36.10
2017-11-04T12:51:08.343Z,26.70
2017-11-04T12:53:35.942Z,29.17
2017-11-04T12:56:04.276Z,30.20
2017-11-04T12:58:31.873Z,27.15
2017-11-04T13:00:59.445Z,32.50
2017-11-04T13:03:27.908Z,30.20
2017-11-04T13:05:55.480Z,37.07
2017-11-04T13:08:23.137Z,33.07
2017-11-04T13:10:50.987Z,31.50
2017-11-04T13:13:18.765Z,33.88
2017-11-04T13:15:46.428Z,33.47
2017-11-04T13:18:15.704Z,34.53
2017-11-04T13:20:43.301Z,32.53
2017-11-04T13:23:11.665Z,39.90
2017-11-04T13:25:39.262Z,31.00
2017-11-04T13:28:06.832Z,34.07
2017-11-04T13:30:34.431Z,31.27
2017-11-04T13:33:02.017Z,32.90
2017-11-04T13:35:30.392Z,31.00
2017-11-04T13:37:58.425Z,33.47
2017-11-04T13:40:26.016Z,30.40
2017-11-04T13:42:53.689Z,30.47
2017-11-04T13:45:21.259Z,35.70
2017-11-04T13:47:49.723Z,38.23
2017-11-04T13:50:17.292Z,37.17
2017-11-04T13:52:44.885Z,33.73
2017-11-04T13:55:14.148Z,37.03
2017-11-04T13:57:42.528Z,41.35
2017-11-04T14:00:10.864Z,38.83
2017-11-04T14:02:38.473Z,40.53
2017-11-04T14:05:06.071Z,41.87
2017-11-04T14:07:33.640Z,35.03
2017-11-04T14:10:01.230Z,40.03
2017-11-04T14:12:28.804Z,36.80
2017-11-04T14:14:56.473Z,39.07
2017-11-04T14:17:24.813Z,38.67
2017-11-04T14:19:52.403Z,42.80
2017-11-04T14:22:19.978Z,48.93
2017-11-04T14:24:49.176Z,37.90
2017-11-04T14:27:16.743Z,43.23
2017-11-04T14:29:44.337Z,41.27
2017-11-04T14:32:11.942Z,36.73
2017-11-04T14:34:39.593Z,43.37
2017-11-04T14:37:07.211Z,38.03
2017-11-04T14:39:34.943Z,45.33
2017-11-04T14:42:02.686Z,48.77
2017-11-04T14:44:30.432Z,39.33
2017-11-04T14:46:58.004Z,42.23
2017-11-04T14:49:25.630Z,47.22
2017-11-04T14:51:54.232Z,50.27
2017-11-04T14:54:21.911Z,44.47
2017-11-04T14:56:49.784Z,45.27
2017-11-04T14:59:17.409Z,51.07
2017-11-04T15:01:45.832Z,48.97
2017-11-04T15:04:14.691Z,50.07
2017-11-04T15:06:42.290Z,45.13
2017-11-04T15:09:09.856Z,47.63
2017-11-04T15:11:37.453Z,51.47
2017-11-04T15:14:05.883Z,43.10
2017-11-04T15:16:33.493Z,52.20
2017-11-04T15:19:01.876Z,49.77
2017-11-04T15:21:30.337Z,47.27
2017-11-04T15:23:57.911Z,48.73
2017-11-04T15:26:26.268Z,52.42
2017-11-04T15:28:53.852Z,53.80
2017-11-04T15:31:22.233Z,50.10
2017-11-04T15:33:50.573Z,55.10
2017-11-04T15:36:18.159Z,50.90
2017-11-04T15:38:45.728Z,47.10
2017-11-04T15:41:15.199Z,52.93
2017-11-04T15:43:42.850Z,49.90
2017-11-04T15:46:10.544Z,58.80
2017-11-04T15:48:38.886Z,57.83
2017-11-04T15:51:06.484Z,56.90
2017-11-04T15:53:34.048Z,69.57
2017-11-04T15:56:01.705Z,77.80
2017-11-04T16:01:03.275Z,88.10
2017-11-04T16:03:30.917Z,91.68
2017-11-04T16:05:58.543Z,91.03
2017-11-04T16:08:26.981Z,96.85
2017-11-04T16:10:54.548Z,73.15
2017-11-04T16:13:22.141Z,61.83
2017-11-04T16:15:49.710Z,56.83
2017-11-04T16:18:17.717Z,56.23
2017-11-04T16:20:45.287Z,53.27
2017-11-04T16:23:14.548Z,57.23
2017-11-04T16:25:42.164Z,66.87
2017-11-04T16:28:09.892Z,53.10
2017-11-04T16:30:37.455Z,53.83
2017-11-04T16:33:05.044Z,54.37
2017-11-04T16:35:32.629Z,55.63
2017-11-04T16:38:01.089Z,54.87
2017-11-04T16:40:28.657Z,58.93
2017-11-04T16:42:56.220Z,58.83
2017-11-04T16:45:24.576Z,41.17
2017-11-04T16:47:52.165Z,53.87
2017-11-04T16:50:20.496Z,51.87
2017-11-04T16:52:48.398Z,49.13
2017-11-04T16:55:17.352Z,59.43
2017-11-04T16:57:44.981Z,50.10
2017-11-04T17:00:13.516Z,55.73
2017-11-04T17:02:41.084Z,55.70
2017-11-04T17:05:08.676Z,60.50
2017-11-04T17:07:37.013Z,55.83
2017-11-04T17:10:04.596Z,53.23
2017-11-04T17:12:32.168Z,55.40
2017-11-04T17:15:00.637Z,57.50
2017-11-04T17:17:28.212Z,49.93
2017-11-04T17:19:56.546Z,64.87
2017-11-04T17:22:24.141Z,60.90
2017-11-04T17:24:51.708Z,58.93
2017-11-04T17:27:20.317Z,56.67
2017-11-04T17:29:47.940Z,59.72
2017-11-04T17:32:16.441Z,61.93
2017-11-04T17:34:44.800Z,54.63
2017-11-04T17:37:13.342Z,58.70
2017-11-04T17:39:41.088Z,53.20
2017-11-04T17:42:15.691Z,50.47
2017-11-04T17:44:44.208Z,54.03
2017-11-04T17:47:11.882Z,54.43
2017-11-04T17:49:39.477Z,58.90
2017-11-04T17:52:07.199Z,49.17
2017-11-04T17:54:34.796Z,54.60
2017-11-04T17:57:02.360Z,56.70
2017-11-04T17:59:30.003Z,50.90
2017-11-04T18:01:57.581Z,58.47
2017-11-04T18:04:25.223Z,58.90
2017-11-04T18:06:52.793Z,68.53
2017-11-04T18:09:20.445Z,63.25
2017-11-04T18:11:48.011Z,63.30
2017-11-04T18:14:17.441Z,59.70
2017-11-04T18:16:45.008Z,71.90
2017-11-04T18:19:12.600Z,57.73
2017-11-04T18:21:40.160Z,70.07
2017-11-04T18:24:08.380Z,59.57
2017-11-04T18:26:35.949Z,68.80
2017-11-04T18:29:03.529Z,61.25
2017-11-04T18:31:31.120Z,66.47
2017-11-04T18:33:58.740Z,59.53
2017-11-04T18:36:26.329Z,57.40
2017-11-04T18:38:54.674Z,65.67
2017-11-04T18:41:22.671Z,57.47
2017-11-04T18:43:51.004Z,61.47
2017-11-04T18:46:18.563Z,79.17
2017-11-04T18:48:46.153Z,75.97
2017-11-04T18:51:13.728Z,61.63
2017-11-04T18:53:42.165Z,70.20
2017-11-04T18:56:09.728Z,59.37
2017-11-04T18:58:37.312Z,56.90
2017-11-04T19:01:06.380Z,65.07
2017-11-04T19:03:34.264Z,60.40
2017-11-04T19:06:01.829Z,68.57
2017-11-04T19:08:29.420Z,58.92
2017-11-04T19:10:57.803Z,69.37
2017-11-04T19:13:26.212Z,58.97
2017-11-04T19:15:53.827Z,54.40
2017-11-04T19:18:21.387Z,54.03
2017-11-04T19:20:48.976Z,58.37
2017-11-04T19:23:17.603Z,52.90
2017-11-04T19:25:45.357Z,55.70
2017-11-04T19:28:14.667Z,47.58
2017-11-04T19:30:42.316Z,54.60
2017-11-04T19:33:09.882Z,56.73
2017-11-04T19:35:37.468Z,49.40
2017-11-04T19:38:05.035Z,52.07
2017-11-04T19:40:32.626Z,60.42
2017-11-04T19:43:00.984Z,45.37
2017-11-04T19:45:28.640Z,49.28
2017-11-04T19:47:56.255Z,60.33
2017-11-04T19:50:23.839Z,37.43
2017-11-04T19:52:51.399Z,53.13
2017-11-04T19:55:18.984Z,45.90
2017-11-04T19:57:46.601Z,51.27
2017-11-04T20:00:16.918Z,47.03
2017-11-04T20:02:44.480Z,50.22
2017-11-04T20:05:12.045Z,50.80
2017-11-04T20:07:39.632Z,46.30
2017-11-04T20:10:07.244Z,44.37
2017-11-04T20:12:35.648Z,45.87
2017-11-04T20:15:03.268Z,56.27
2017-11-04T20:17:31.524Z,52.17
2017-11-04T20:19:59.144Z,44.63
2017-11-04T20:22:26.766Z,56.10
2017-11-04T20:24:54.404Z,51.70
2017-11-04T20:27:22.055Z,51.30
2017-11-04T20:29:49.672Z,54.97
2017-11-04T20:32:18.056Z,50.50
2017-11-04T20:34:45.652Z,52.87
2017-11-04T20:37:14.200Z,49.77
2017-11-04T20:39:42.604Z,55.43
2017-11-04T20:42:10.262Z,47.83
2017-11-04T20:44:38.284Z,57.50
2017-11-04T20:47:05.856Z,50.23
2017-11-04T20:49:34.196Z,56.87
2017-11-04T20:52:01.788Z,55.60
2017-11-04T20:54:29.360Z,56.47
2017-11-04T20:56:57.715Z,57.73
2017-11-04T20:59:25.281Z,52.70
2017-11-04T21:01:52.880Z,57.42
2017-11-04T21:04:20.449Z,61.40
2017-11-04T21:06:48.064Z,56.30
2017-11-04T21:09:16.617Z,58.23
2017-11-04T21:11:44.209Z,58.77
2017-11-04T21:14:11.784Z,65.77
2017-11-04T21:16:39.379Z,58.10
2017-11-04T21:19:06.999Z,64.97
2017-11-04T21:21:34.911Z,62.10
2017-11-04T21:24:02.468Z,58.57
2017-11-04T21:26:30.084Z,64.33
2017-11-04T21:28:58.435Z,61.37
2017-11-04T21:31:26.051Z,56.88
2017-11-04T21:33:54.576Z,68.10
2017-11-04T21:36:22.200Z,68.37
2017-11-04T21:38:50.583Z,73.17
2017-11-04T21:41:18.172Z,93.87
2017-11-04T21:43:45.837Z,103.53
2017-11-04T21:46:15.472Z,75.47
2017-11-04T21:48:43.039Z,76.87
2017-11-04T21:51:10.709Z,58.60
2017-11-04T21:53:38.276Z,71.60
2017-11-04T21:56:05.915Z,66.27
2017-11-04T21:58:33.484Z,66.18
2017-11-04T22:01:01.148Z,65.77
2017-11-04T22:03:29.835Z,65.27
2017-11-04T22:05:57.436Z,62.80
2017-11-04T22:08:25.006Z,71.20
2017-11-04T22:10:52.594Z,60.60
2017-11-04T22:13:20.175Z,69.80
2017-11-04T22:15:47.816Z,62.03
2017-11-04T22:18:17.116Z,66.63
2017-11-04T22:20:44.709Z,60.00
2017-11-04T22:23:12.372Z,74.90
2017-11-04T22:25:39.987Z,65.27
2017-11-04T22:28:08.816Z,70.57
2017-11-04T22:30:36.431Z,68.90
2017-11-04T22:33:04.071Z,74.93
2017-11-04T22:35:32.408Z,72.17
2017-11-04T22:38:00.017Z,69.10
2017-11-04T22:40:27.639Z,71.87
2017-11-04T22:42:55.241Z,64.00
2017-11-04T22:45:22.808Z,70.10
2017-11-04T22:47:50.404Z,68.67
2017-11-04T22:50:18.023Z,84.93
2017-11-04T22:52:46.381Z,79.68
2017-11-04T22:55:15.436Z,83.70
2017-11-04T22:57:43.055Z,72.93
2017-11-04T23:00:11.425Z,78.47
2017-11-04T23:02:39.761Z,69.87
2017-11-04T23:05:07.448Z,71.13
2017-11-04T23:07:35.058Z,93.93
2017-11-04T23:10:02.652Z,69.23
2017-11-04T23:12:30.219Z,72.95
2017-11-04T23:14:57.846Z,90.07
2017-11-04T23:17:25.420Z,74.07
2017-11-04T23:19:53.009Z,75.20
2017-11-04T23:22:20.580Z,73.80
2017-11-04T23:24:49.103Z,76.03
2017-11-04T23:27:16.664Z,84.87
2017-11-04T23:29:44.227Z,81.37
2017-11-04T23:32:11.811Z,70.27
2017-11-04T23:34:39.400Z,70.90
2017-11-04T23:37:07.252Z,76.85
2017-11-04T23:39:34.816Z,68.70
2017-11-04T23:42:02.408Z,74.03
2017-11-04T23:44:30.744Z,70.07
2017-11-04T23:46:58.337Z,66.60
2017-11-04T23:49:25.901Z,61.40
2017-11-04T23:51:53.484Z,67.40
2017-11-04T23:54:21.112Z,68.62
2017-11-04T23:56:48.979Z,68.13
2017-11-04T23:59:18.556Z,63.35
